Allison Crosby — WDF2763 — position and weather

sailwx.info

Track history (hours):
 
Tides and Currents Weather Stations Pressure Air Temp Water Temp Dewpoint Dewpoint Depression Visibility Wind Speed Wind Dir Waves Ship Positions

Allison Crosby

Owner: Crosby Marine Transportation LLC, Golden Meadow, LA. More information available from US FCC via Universal Licensing System and Coast Guard Vessel Documentation Center.

Last reported at 2017-May-27 21:08 UTC. Time now 2017-May-28 04:52 UTC.
Position N 38°59' W 075°08'.

Length 124 m; draft 6.7 m.

Type: . MMSI: 367431620.

Date/timePositionNaut miles runAvg speedWind from/ knotsBaromVisibWave heightAir tempDewpointWater temp
2017-May-27 21:08N 38°59' W 075°08'110.8
2017-May-27 21:00N 39°00' W 075°09'611.3
2017-May-27 20:30N 39°05' W 075°11'611.6
2017-May-27 20:00N 39°10' W 075°16'611.7
2017-May-27 19:30N 39°15' W 075°20'611.4
2017-May-27 19:00N 39°19' W 075°25'510.8
2017-May-27 18:30N 39°23' W 075°29'5 9.8
2017-May-27 18:00N 39°27' W 075°33'4 8.4
2017-May-27 17:30N 39°31' W 075°33'4 7.9
2017-May-27 17:00N 39°35' W 075°34'3 6.7
2017-May-27 16:30N 39°39' W 075°34'4 7.5
2017-May-27 16:00N 39°42' W 075°31'1 2.5
2017-May-27 15:29N 39°43' W 075°31'0 0.0
2017-May-27 14:59N 39°43' W 075°31'0 0.0
2017-May-27 14:29N 39°43' W 075°31'0 0.0
2017-May-27 13:29N 39°43' W 075°31'0 0.0
2017-May-27 12:56N 39°43' W 075°31'0 0.0
2017-May-27 12:29N 39°43' W 075°31'0 0.0
2017-May-27 11:59N 39°43' W 075°31'0 0.0
2017-May-27 11:29N 39°43' W 075°31'0 0.0
2017-May-27 10:59N 39°43' W 075°31'0 0.0
2017-May-27 10:23N 39°43' W 075°31'0 0.0
2017-May-27 09:59N 39°43' W 075°31'0 0.0
2017-May-27 09:29N 39°43' W 075°31'0 0.0
2017-May-27 08:59N 39°43' W 075°31'0 0.0
2017-May-27 08:29N 39°43' W 075°31'0 0.0
2017-May-27 07:53N 39°43' W 075°31'0 0.0
2017-May-27 07:29N 39°43' W 075°31'0 0.0
2017-May-27 06:59N 39°43' W 075°31'0 0.0
2017-May-27 06:29N 39°43' W 075°31'0 0.0
2017-May-27 05:59N 39°43' W 075°31'0 0.0
2017-May-27 05:29N 39°43' W 075°31'0 0.0
2017-May-27 04:59N 39°43' W 075°31'0 0.0
2017-May-27 04:29N 39°43' W 075°31'0 0.0
2017-May-27 04:00N 39°43' W 075°31'0 0.0
2017-May-27 03:31N 39°43' W 075°31'0 0.0
2017-May-27 03:01N 39°43' W 075°31'0 0.0
2017-May-27 02:31N 39°43' W 075°31'0 0.0
2017-May-27 02:01N 39°43' W 075°31'0 0.0
2017-May-27 01:30N 39°43' W 075°31'0 0.0
2017-May-27 01:00N 39°43' W 075°31'0 0.0
2017-May-27 00:30N 39°43' W 075°31'0 0.0
2017-May-27 00:01N 39°43' W 075°31'0 0.0
2017-May-26 23:31N 39°43' W 075°31'0 0.0
2017-May-26 23:01N 39°43' W 075°31'0 0.0
2017-May-26 22:31N 39°43' W 075°31'0 0.1
2017-May-26 22:00N 39°43' W 075°31'1 1.8
2017-May-26 21:30N 39°42' W 075°31'1 1.4
2017-May-26 21:00N 39°41' W 075°31'2 4.9
2017-May-26 20:30N 39°39' W 075°33'3 5.0
2017-May-26 20:01N 39°37' W 075°35'3 5.4
2017-May-26 19:29N 39°35' W 075°33'3 5.5
2017-May-26 19:01N 39°32' W 075°33'2 4.2
2017-May-26 18:30N 39°30' W 075°33'0 0.2
2017-May-26 18:00N 39°30' W 075°33'0 0.3
2017-May-26 17:30N 39°30' W 075°33'0 0.1
2017-May-26 16:57N 39°30' W 075°33'0 0.0
2017-May-26 16:30N 39°30' W 075°33'0 0.0
2017-May-26 16:00N 39°30' W 075°33'0 0.0
2017-May-26 15:30N 39°30' W 075°33'0 0.0
2017-May-26 15:00N 39°30' W 075°33'0 0.0
2017-May-26 14:00N 39°30' W 075°33'0 0.0
2017-May-26 13:30N 39°30' W 075°33'0 0.1
2017-May-26 13:00N 39°30' W 075°33'0 0.3
2017-May-26 12:30N 39°30' W 075°33'0 0.1
2017-May-26 12:00N 39°30' W 075°33'0 0.0
2017-May-26 11:30N 39°30' W 075°33'0 0.0
2017-May-26 11:00N 39°30' W 075°33'0 0.3
2017-May-26 10:30N 39°30' W 075°33'0 0.4
2017-May-26 10:00N 39°30' W 075°33'0 0.3
2017-May-26 09:30N 39°30' W 075°33'0 0.0
2017-May-26 09:00N 39°30' W 075°33'0 0.0
2017-May-26 08:30N 39°30' W 075°33'0 0.0
2017-May-26 08:00N 39°30' W 075°33'0 0.0
2017-May-26 07:30N 39°30' W 075°33'0 0.0
2017-May-26 07:00N 39°30' W 075°33'0 0.0
2017-May-26 06:30N 39°30' W 075°33'0 0.1
2017-May-26 06:00N 39°30' W 075°33'0 0.2
2017-May-26 05:30N 39°30' W 075°33'0 0.3
2017-May-26 05:00N 39°30' W 075°33'0 0.0
2017-May-26 04:30N 39°30' W 075°33'0 0.0
2017-May-26 04:00N 39°30' W 075°33'0 0.0
2017-May-26 03:30N 39°30' W 075°33'0 0.1
2017-May-26 03:00N 39°30' W 075°33'0 0.1
2017-May-26 02:30N 39°30' W 075°33'0 0.0
2017-May-26 02:00N 39°30' W 075°33'0 0.0
2017-May-26 01:30N 39°30' W 075°33'0 0.0
2017-May-26 01:00N 39°30' W 075°33'0 0.0
2017-May-26 00:30N 39°30' W 075°33'0 0.0
2017-May-26 00:00N 39°30' W 075°33'0 0.3
2017-May-25 23:30N 39°30' W 075°33'0 0.1
2017-May-25 23:00N 39°30' W 075°33'0 0.0
2017-May-25 22:30N 39°30' W 075°33'0 0.0
2017-May-25 22:00N 39°30' W 075°33'0 0.1
2017-May-25 21:30N 39°30' W 075°33'0 0.0
2017-May-25 21:00N 39°30' W 075°33'0 0.0
2017-May-25 20:30N 39°30' W 075°33'0 0.0
2017-May-25 20:00N 39°30' W 075°33'0 0.0
2017-May-25 19:30N 39°30' W 075°33'0 0.0
2017-May-25 19:00N 39°30' W 075°33'0 0.0
2017-May-25 18:30N 39°30' W 075°33'0 0.0
2017-May-25 18:00N 39°30' W 075°33'0 0.0
2017-May-25 17:24N 39°30' W 075°33'0 0.3
2017-May-25 17:00N 39°30' W 075°33'0 0.2
2017-May-25 16:30N 39°30' W 075°33'0 0.0
2017-May-25 16:00N 39°30' W 075°33'0 0.0
2017-May-25 15:30N 39°30' W 075°33'0 0.0
2017-May-25 15:00N 39°30' W 075°33'0 0.0
2017-May-25 14:00N 39°30' W 075°33'0 0.0
2017-May-25 13:30N 39°30' W 075°33'0 0.0
2017-May-25 13:00N 39°30' W 075°33'0 0.0
2017-May-25 12:30N 39°30' W 075°33'0 0.1
2017-May-25 12:00N 39°30' W 075°33'0 0.3
2017-May-25 11:30N 39°30' W 075°33'0 0.3
2017-May-25 11:00N 39°30' W 075°33'0 0.1
2017-May-25 10:30N 39°30' W 075°33'0 0.0
2017-May-25 10:00N 39°30' W 075°33'0 0.0
2017-May-25 09:30N 39°30' W 075°33'0 0.0
2017-May-25 09:00N 39°30' W 075°33'0 0.0
2017-May-25 08:30N 39°30' W 075°33'0 0.0
2017-May-25 08:00N 39°30' W 075°33'0 0.0
2017-May-25 07:30N 39°30' W 075°33'0 0.0
2017-May-25 07:00N 39°30' W 075°33'0 0.0
2017-May-25 06:30N 39°30' W 075°33'0 0.0
2017-May-25 06:00N 39°30' W 075°33'0 0.0
2017-May-25 05:30N 39°30' W 075°33'0 0.1
2017-May-25 05:00N 39°30' W 075°33'0 0.2
2017-May-25 04:30N 39°30' W 075°33'0 0.3
2017-May-25 04:00N 39°30' W 075°33'0 0.1
2017-May-25 03:30N 39°30' W 075°33'0 0.1
2017-May-25 03:00N 39°30' W 075°33'0 0.0
2017-May-25 02:30N 39°30' W 075°33'0 0.0
2017-May-25 02:00N 39°30' W 075°33'0 0.1
2017-May-25 01:30N 39°30' W 075°33'0 0.1
2017-May-25 01:00N 39°30' W 075°33'0 0.0
2017-May-25 00:30N 39°30' W 075°33'0 0.1
2017-May-25 00:00N 39°30' W 075°33'0 0.0
2017-May-24 23:30N 39°30' W 075°33'0 0.0
2017-May-24 23:00N 39°30' W 075°33'0 0.3
2017-May-24 22:30N 39°30' W 075°33'0 0.2
2017-May-24 22:00N 39°30' W 075°33'0 0.1
2017-May-24 21:30N 39°30' W 075°33'0 0.0
2017-May-24 21:00N 39°30' W 075°33'0 0.0
2017-May-24 20:30N 39°30' W 075°33'0 0.0
2017-May-24 20:00N 39°30' W 075°33'0 0.0
2017-May-24 19:30N 39°30' W 075°33'0 0.0
2017-May-24 19:00N 39°30' W 075°33'0 0.1
2017-May-24 18:30N 39°30' W 075°33'0 0.0
2017-May-24 17:57N 39°30' W 075°33'0 0.0
2017-May-24 17:30N 39°30' W 075°33'0 0.1
2017-May-24 17:00N 39°30' W 075°33'0 0.1
2017-May-24 16:30N 39°30' W 075°33'0 0.1
2017-May-24 16:00N 39°30' W 075°33'0 0.2
2017-May-24 15:27N 39°30' W 075°33'0 0.0
2017-May-24 15:00N 39°30' W 075°33'0 0.0
2017-May-24 14:30N 39°30' W 075°33'0 0.0
2017-May-24 13:30N 39°30' W 075°33'0 0.0
2017-May-24 13:00N 39°30' W 075°33'0 0.0
2017-May-24 12:30N 39°30' W 075°33'0 0.0
2017-May-24 12:00N 39°30' W 075°33'0 0.0
2017-May-24 11:30N 39°30' W 075°33'0 0.0
2017-May-24 11:00N 39°30' W 075°33'0 0.3
2017-May-24 10:30N 39°30' W 075°33'0 0.1
2017-May-24 10:00N 39°30' W 075°33'0 0.0
2017-May-24 09:30N 39°30' W 075°33'0 0.0
2017-May-24 09:00N 39°30' W 075°33'0 0.0
2017-May-24 08:30N 39°30' W 075°33'0 0.0
2017-May-24 08:00N 39°30' W 075°33'0 0.5
2017-May-24 07:29N 39°30' W 075°33'0 0.3
2017-May-24 06:59N 39°30' W 075°33'0 0.5
2017-May-24 06:29N 39°30' W 075°33'0 0.1
2017-May-24 05:59N 39°30' W 075°33'0 0.0
2017-May-24 05:29N 39°30' W 075°33'0 0.0
2017-May-24 04:59N 39°30' W 075°33'0 0.1
2017-May-24 04:30N 39°30' W 075°33'0 0.8
2017-May-24 04:01N 39°30' W 075°33'3 6.3
2017-May-24 03:30N 39°33' W 075°33'3 6.3
2017-May-24 03:00N 39°36' W 075°34'3 5.3
2017-May-24 02:30N 39°39' W 075°33'3 5.4
2017-May-24 02:01N 39°41' W 075°31'2 3.3
2017-May-24 01:30N 39°42' W 075°30'0 0.2
2017-May-24 01:00N 39°42' W 075°30'0 0.2
2017-May-24 00:30N 39°42' W 075°30'1 1.4
2017-May-24 00:00N 39°42' W 075°31'4 8.2
2017-May-23 23:30N 39°38' W 075°34'4 7.9
2017-May-23 23:00N 39°34' W 075°33'4 8.2
2017-May-23 22:31N 39°30' W 075°33'4 7.7
2017-May-23 22:00N 39°27' W 075°33'4 7.8
2017-May-23 21:30N 39°24' W 075°29'4 7.3
2017-May-23 21:01N 39°21' W 075°26'4 7.1
2017-May-23 20:30N 39°18' W 075°23'3 6.8
2017-May-23 20:00N 39°16' W 075°20'3 6.2
2017-May-23 19:29N 39°13' W 075°18'3 6.2
2017-May-23 19:00N 39°10' W 075°16'54 4.2
2017-May-23 06:09N 39°28' W 074°11'1 7.3
2017-May-23 05:57N 39°30' W 074°10'3 7.3
2017-May-23 05:30N 39°32' W 074°08'4 7.3
2017-May-23 05:00N 39°36' W 074°05'4 7.3
2017-May-23 04:30N 39°39' W 074°03'4 7.3
2017-May-23 04:00N 39°42' W 074°01'49 6.7
2017-May-22 20:40N 40°31' W 074°00'1 5.5
2017-May-22 20:30N 40°32' W 074°01'3 5.6
2017-May-22 20:01N 40°34' W 074°02'3 5.9
2017-May-22 19:31N 40°37' W 074°03'3 5.4
2017-May-22 19:01N 40°40' W 074°01'3 5.2
2017-May-22 18:30N 40°42' W 073°60'2 5.0
2017-May-22 18:00N 40°44' W 073°58'15 0.4
2017-May-21 07:17N 40°53' W 073°43'410.2
2017-May-21 06:52N 40°50' W 073°46'3 8.5
2017-May-21 06:30N 40°48' W 073°50'5 9.8
2017-May-21 06:00N 40°47' W 073°56'510.1
2017-May-21 05:31N 40°42' W 073°59'4 7.5
2017-May-21 05:01N 40°40' W 074°02'1 1.8
2017-May-21 04:31N 40°39' W 074°03'3 2.9
2017-May-21 03:38N 40°39' W 074°07'0 0.0
2017-May-21 03:13N 40°39' W 074°07'0 0.0
2017-May-21 02:52N 40°39' W 074°07'0 0.0
2017-May-21 02:15N 40°39' W 074°07'0 0.0
2017-May-21 02:00N 40°39' W 074°07'0 0.0
2017-May-21 01:27N 40°39' W 074°07'0 0.0
2017-May-21 00:56N 40°39' W 074°07'0 0.0
2017-May-21 00:28N 40°39' W 074°07'0 0.0
2017-May-20 23:55N 40°39' W 074°07'0 0.0
2017-May-20 23:13N 40°39' W 074°07'0 0.0
2017-May-20 22:54N 40°39' W 074°07'2 5.4
2017-May-20 22:31N 40°39' W 074°04'2 4.1
2017-May-20 21:59N 40°39' W 074°07'2 5.1
2017-May-20 21:30N 40°39' W 074°10'0 0.0
2017-May-20 20:59N 40°39' W 074°10'0 0.0
2017-May-20 20:30N 40°39' W 074°10'0 0.0
2017-May-20 20:00N 40°39' W 074°10'0 0.0
2017-May-20 19:30N 40°39' W 074°10'0 0.0
2017-May-20 19:00N 40°39' W 074°10'0 0.0
2017-May-20 18:29N 40°39' W 074°10'4 7.9
2017-May-20 18:01N 40°39' W 074°05'2 4.1
2017-May-20 17:31N 40°40' W 074°02'3 5.4
2017-May-20 17:01N 40°37' W 074°03'46 9.1
2017-May-20 11:59N 39°51' W 073°58'6 8.7
2017-May-20 11:16N 39°45' W 073°59'3 8.0
2017-May-20 10:54N 39°42' W 074°01'71 8.5
2017-May-20 02:32N 38°49' W 075°02'010.9
2017-May-20 02:30N 38°49' W 075°02'611.1
2017-May-20 02:00N 38°54' W 075°05'611.2
2017-May-20 01:30N 38°60' W 075°08'611.4
2017-May-20 01:01N 39°05' W 075°11'611.3
2017-May-20 00:30N 39°09' W 075°15'511.0
2017-May-20 00:01N 39°14' W 075°19'510.5
2017-May-19 23:30N 39°18' W 075°23'510.0
2017-May-19 23:00N 39°22' W 075°27'5 9.1
2017-May-19 22:31N 39°25' W 075°31'4 8.2
2017-May-19 22:01N 39°29' W 075°34'4 7.9
2017-May-19 21:31N 39°33' W 075°33'4 7.8
2017-May-19 21:01N 39°36' W 075°34'4 7.2
2017-May-19 20:31N 39°40' W 075°32'4 7.1
2017-May-19 20:01N 39°43' W 075°31'0 0.4
2017-May-19 19:30N 39°43' W 075°31'0 0.0
2017-May-19 19:01N 39°43' W 075°31'0 0.0
2017-May-19 18:30N 39°43' W 075°31'0 0.0
2017-May-19 18:01N 39°43' W 075°31'0 0.0
2017-May-19 17:30N 39°43' W 075°31'0 0.0
2017-May-19 17:00N 39°43' W 075°31'0 0.0
2017-May-19 16:28N 39°43' W 075°31'0 0.0
2017-May-19 16:00N 39°43' W 075°31'0 0.0
2017-May-19 15:30N 39°43' W 075°31'0 0.0
2017-May-19 14:54N 39°43' W 075°31'0 0.0
2017-May-19 14:00N 39°43' W 075°31'0 0.0
2017-May-19 13:30N 39°43' W 075°31'0 0.0
2017-May-19 12:58N 39°43' W 075°31'0 0.0
2017-May-19 12:30N 39°43' W 075°31'0 0.0
2017-May-19 11:58N 39°43' W 075°31'0 0.0
2017-May-19 11:27N 39°43' W 075°31'0 0.1
2017-May-19 11:00N 39°43' W 075°31'0 0.0
2017-May-19 10:30N 39°43' W 075°31'0 0.0
2017-May-19 10:01N 39°43' W 075°31'0 0.0
2017-May-19 09:30N 39°43' W 075°31'0 0.0
2017-May-19 09:00N 39°43' W 075°31'0 0.0
2017-May-19 08:30N 39°43' W 075°31'0 0.0
2017-May-19 08:01N 39°43' W 075°31'0 0.0
2017-May-19 07:31N 39°43' W 075°31'0 0.0
2017-May-19 07:01N 39°43' W 075°31'0 0.0
2017-May-19 06:30N 39°43' W 075°31'0 0.0
2017-May-19 06:01N 39°43' W 075°31'0 0.0
2017-May-19 05:30N 39°43' W 075°31'0 0.0
2017-May-19 05:01N 39°43' W 075°31'0 0.0
2017-May-19 04:31N 39°43' W 075°31'0 0.0
2017-May-19 04:01N 39°43' W 075°31'0 0.0
2017-May-19 03:30N 39°43' W 075°31'0 0.0
2017-May-19 03:01N 39°43' W 075°31'0 0.0
2017-May-19 02:31N 39°43' W 075°31'0 0.0
2017-May-19 02:01N 39°43' W 075°31'0 0.0
2017-May-19 01:30N 39°43' W 075°31'0 0.0
2017-May-19 01:01N 39°43' W 075°31'0 0.0
2017-May-19 00:31N 39°43' W 075°31'1 2.1
2017-May-19 00:00N 39°42' W 075°31'3 7.0
2017-May-18 23:30N 39°39' W 075°33'3 6.4
2017-May-18 23:01N 39°36' W 075°34'4 7.5
2017-May-18 22:31N 39°32' W 075°33'4 7.9
2017-May-18 22:01N 39°28' W 075°34'4 7.7
2017-May-18 21:31N 39°25' W 075°31'4 8.3
2017-May-18 21:00N 39°22' W 075°27'4 8.3
2017-May-18 20:31N 39°19' W 075°24'4 8.3
2017-May-18 20:01N 39°16' W 075°20'4 8.2
2017-May-18 19:30N 39°12' W 075°17'59 4.5
2017-May-18 06:31N 39°34' W 074°07'1 6.9
2017-May-18 06:24N 39°35' W 074°06'3 6.9
2017-May-18 05:59N 39°37' W 074°04'3 6.8
2017-May-18 05:30N 39°40' W 074°02'49 6.8
2017-May-17 22:23N 40°29' W 073°54'4 7.6
2017-May-17 21:53N 40°31' W 073°58'3 7.8
2017-May-17 21:30N 40°33' W 074°02'  
Track history (hours):
 
Tides and Currents Weather Stations Pressure Air Temp Water Temp Dewpoint Dewpoint Depression Visibility Wind Speed Wind Dir Waves Ship Positions

Allison Crosby

Owner: Crosby Marine Transportation LLC, Golden Meadow, LA. More information available from US FCC via Universal Licensing System and Coast Guard Vessel Documentation Center.

Last reported at 2017-May-27 21:08 UTC. Time now 2017-May-28 04:52 UTC.
Position N 38°59' W 075°08'.

Length 124 m; draft 6.7 m.

Type: . MMSI: 367431620.

Date/timePositionNaut miles runAvg speedWind from/ knotsBaromVisibWave heightAir tempDewpointWater temp
2017-May-27 21:08N 38°59' W 075°08'110.8
2017-May-27 21:00N 39°00' W 075°09'611.3
2017-May-27 20:30N 39°05' W 075°11'611.6
2017-May-27 20:00N 39°10' W 075°16'611.7
2017-May-27 19:30N 39°15' W 075°20'611.4
2017-May-27 19:00N 39°19' W 075°25'510.8
2017-May-27 18:30N 39°23' W 075°29'5 9.8
2017-May-27 18:00N 39°27' W 075°33'4 8.4
2017-May-27 17:30N 39°31' W 075°33'4 7.9
2017-May-27 17:00N 39°35' W 075°34'3 6.7
2017-May-27 16:30N 39°39' W 075°34'4 7.5
2017-May-27 16:00N 39°42' W 075°31'1 2.5
2017-May-27 15:29N 39°43' W 075°31'0 0.0
2017-May-27 14:59N 39°43' W 075°31'0 0.0
2017-May-27 14:29N 39°43' W 075°31'0 0.0
2017-May-27 13:29N 39°43' W 075°31'0 0.0
2017-May-27 12:56N 39°43' W 075°31'0 0.0
2017-May-27 12:29N 39°43' W 075°31'0 0.0
2017-May-27 11:59N 39°43' W 075°31'0 0.0
2017-May-27 11:29N 39°43' W 075°31'0 0.0
2017-May-27 10:59N 39°43' W 075°31'0 0.0
2017-May-27 10:23N 39°43' W 075°31'0 0.0
2017-May-27 09:59N 39°43' W 075°31'0 0.0
2017-May-27 09:29N 39°43' W 075°31'0 0.0
2017-May-27 08:59N 39°43' W 075°31'0 0.0
2017-May-27 08:29N 39°43' W 075°31'0 0.0
2017-May-27 07:53N 39°43' W 075°31'0 0.0
2017-May-27 07:29N 39°43' W 075°31'0 0.0
2017-May-27 06:59N 39°43' W 075°31'0 0.0
2017-May-27 06:29N 39°43' W 075°31'0 0.0
2017-May-27 05:59N 39°43' W 075°31'0 0.0
2017-May-27 05:29N 39°43' W 075°31'0 0.0
2017-May-27 04:59N 39°43' W 075°31'0 0.0
2017-May-27 04:29N 39°43' W 075°31'0 0.0
2017-May-27 04:00N 39°43' W 075°31'0 0.0
2017-May-27 03:31N 39°43' W 075°31'0 0.0
2017-May-27 03:01N 39°43' W 075°31'0 0.0
2017-May-27 02:31N 39°43' W 075°31'0 0.0
2017-May-27 02:01N 39°43' W 075°31'0 0.0
2017-May-27 01:30N 39°43' W 075°31'0 0.0
2017-May-27 01:00N 39°43' W 075°31'0 0.0
2017-May-27 00:30N 39°43' W 075°31'0 0.0
2017-May-27 00:01N 39°43' W 075°31'0 0.0
2017-May-26 23:31N 39°43' W 075°31'0 0.0
2017-May-26 23:01N 39°43' W 075°31'0 0.0
2017-May-26 22:31N 39°43' W 075°31'0 0.1
2017-May-26 22:00N 39°43' W 075°31'1 1.8
2017-May-26 21:30N 39°42' W 075°31'1 1.4
2017-May-26 21:00N 39°41' W 075°31'2 4.9
2017-May-26 20:30N 39°39' W 075°33'3 5.0
2017-May-26 20:01N 39°37' W 075°35'3 5.4
2017-May-26 19:29N 39°35' W 075°33'3 5.5
2017-May-26 19:01N 39°32' W 075°33'2 4.2
2017-May-26 18:30N 39°30' W 075°33'0 0.2
2017-May-26 18:00N 39°30' W 075°33'0 0.3
2017-May-26 17:30N 39°30' W 075°33'0 0.1
2017-May-26 16:57N 39°30' W 075°33'0 0.0
2017-May-26 16:30N 39°30' W 075°33'0 0.0
2017-May-26 16:00N 39°30' W 075°33'0 0.0
2017-May-26 15:30N 39°30' W 075°33'0 0.0
2017-May-26 15:00N 39°30' W 075°33'0 0.0
2017-May-26 14:00N 39°30' W 075°33'0 0.0
2017-May-26 13:30N 39°30' W 075°33'0 0.1
2017-May-26 13:00N 39°30' W 075°33'0 0.3
2017-May-26 12:30N 39°30' W 075°33'0 0.1
2017-May-26 12:00N 39°30' W 075°33'0 0.0
2017-May-26 11:30N 39°30' W 075°33'0 0.0
2017-May-26 11:00N 39°30' W 075°33'0 0.3
2017-May-26 10:30N 39°30' W 075°33'0 0.4
2017-May-26 10:00N 39°30' W 075°33'0 0.3
2017-May-26 09:30N 39°30' W 075°33'0 0.0
2017-May-26 09:00N 39°30' W 075°33'0 0.0
2017-May-26 08:30N 39°30' W 075°33'0 0.0
2017-May-26 08:00N 39°30' W 075°33'0 0.0
2017-May-26 07:30N 39°30' W 075°33'0 0.0
2017-May-26 07:00N 39°30' W 075°33'0 0.0
2017-May-26 06:30N 39°30' W 075°33'0 0.1
2017-May-26 06:00N 39°30' W 075°33'0 0.2
2017-May-26 05:30N 39°30' W 075°33'0 0.3
2017-May-26 05:00N 39°30' W 075°33'0 0.0
2017-May-26 04:30N 39°30' W 075°33'0 0.0
2017-May-26 04:00N 39°30' W 075°33'0 0.0
2017-May-26 03:30N 39°30' W 075°33'0 0.1
2017-May-26 03:00N 39°30' W 075°33'0 0.1
2017-May-26 02:30N 39°30' W 075°33'0 0.0
2017-May-26 02:00N 39°30' W 075°33'0 0.0
2017-May-26 01:30N 39°30' W 075°33'0 0.0
2017-May-26 01:00N 39°30' W 075°33'0 0.0
2017-May-26 00:30N 39°30' W 075°33'0 0.0
2017-May-26 00:00N 39°30' W 075°33'0 0.3
2017-May-25 23:30N 39°30' W 075°33'0 0.1
2017-May-25 23:00N 39°30' W 075°33'0 0.0
2017-May-25 22:30N 39°30' W 075°33'0 0.0
2017-May-25 22:00N 39°30' W 075°33'0 0.1
2017-May-25 21:30N 39°30' W 075°33'0 0.0
2017-May-25 21:00N 39°30' W 075°33'0 0.0
2017-May-25 20:30N 39°30' W 075°33'0 0.0
2017-May-25 20:00N 39°30' W 075°33'0 0.0
2017-May-25 19:30N 39°30' W 075°33'0 0.0
2017-May-25 19:00N 39°30' W 075°33'0 0.0
2017-May-25 18:30N 39°30' W 075°33'0 0.0
2017-May-25 18:00N 39°30' W 075°33'0 0.0
2017-May-25 17:24N 39°30' W 075°33'0 0.3
2017-May-25 17:00N 39°30' W 075°33'0 0.2
2017-May-25 16:30N 39°30' W 075°33'0 0.0
2017-May-25 16:00N 39°30' W 075°33'0 0.0
2017-May-25 15:30N 39°30' W 075°33'0 0.0
2017-May-25 15:00N 39°30' W 075°33'0 0.0
2017-May-25 14:00N 39°30' W 075°33'0 0.0
2017-May-25 13:30N 39°30' W 075°33'0 0.0
2017-May-25 13:00N 39°30' W 075°33'0 0.0
2017-May-25 12:30N 39°30' W 075°33'0 0.1
2017-May-25 12:00N 39°30' W 075°33'0 0.3
2017-May-25 11:30N 39°30' W 075°33'0 0.3
2017-May-25 11:00N 39°30' W 075°33'0 0.1
2017-May-25 10:30N 39°30' W 075°33'0 0.0
2017-May-25 10:00N 39°30' W 075°33'0 0.0
2017-May-25 09:30N 39°30' W 075°33'0 0.0
2017-May-25 09:00N 39°30' W 075°33'0 0.0
2017-May-25 08:30N 39°30' W 075°33'0 0.0
2017-May-25 08:00N 39°30' W 075°33'0 0.0
2017-May-25 07:30N 39°30' W 075°33'0 0.0
2017-May-25 07:00N 39°30' W 075°33'0 0.0
2017-May-25 06:30N 39°30' W 075°33'0 0.0
2017-May-25 06:00N 39°30' W 075°33'0 0.0
2017-May-25 05:30N 39°30' W 075°33'0 0.1
2017-May-25 05:00N 39°30' W 075°33'0 0.2
2017-May-25 04:30N 39°30' W 075°33'0 0.3
2017-May-25 04:00N 39°30' W 075°33'0 0.1
2017-May-25 03:30N 39°30' W 075°33'0 0.1
2017-May-25 03:00N 39°30' W 075°33'0 0.0
2017-May-25 02:30N 39°30' W 075°33'0 0.0
2017-May-25 02:00N 39°30' W 075°33'0 0.1
2017-May-25 01:30N 39°30' W 075°33'0 0.1
2017-May-25 01:00N 39°30' W 075°33'0 0.0
2017-May-25 00:30N 39°30' W 075°33'0 0.1
2017-May-25 00:00N 39°30' W 075°33'0 0.0
2017-May-24 23:30N 39°30' W 075°33'0 0.0
2017-May-24 23:00N 39°30' W 075°33'0 0.3
2017-May-24 22:30N 39°30' W 075°33'0 0.2
2017-May-24 22:00N 39°30' W 075°33'0 0.1
2017-May-24 21:30N 39°30' W 075°33'0 0.0
2017-May-24 21:00N 39°30' W 075°33'0 0.0
2017-May-24 20:30N 39°30' W 075°33'0 0.0
2017-May-24 20:00N 39°30' W 075°33'0 0.0
2017-May-24 19:30N 39°30' W 075°33'0 0.0
2017-May-24 19:00N 39°30' W 075°33'0 0.1
2017-May-24 18:30N 39°30' W 075°33'0 0.0
2017-May-24 17:57N 39°30' W 075°33'0 0.0
2017-May-24 17:30N 39°30' W 075°33'0 0.1
2017-May-24 17:00N 39°30' W 075°33'0 0.1
2017-May-24 16:30N 39°30' W 075°33'0 0.1
2017-May-24 16:00N 39°30' W 075°33'0 0.2
2017-May-24 15:27N 39°30' W 075°33'0 0.0
2017-May-24 15:00N 39°30' W 075°33'0 0.0
2017-May-24 14:30N 39°30' W 075°33'0 0.0
2017-May-24 13:30N 39°30' W 075°33'0 0.0
2017-May-24 13:00N 39°30' W 075°33'0 0.0
2017-May-24 12:30N 39°30' W 075°33'0 0.0
2017-May-24 12:00N 39°30' W 075°33'0 0.0
2017-May-24 11:30N 39°30' W 075°33'0 0.0
2017-May-24 11:00N 39°30' W 075°33'0 0.3
2017-May-24 10:30N 39°30' W 075°33'0 0.1
2017-May-24 10:00N 39°30' W 075°33'0 0.0
2017-May-24 09:30N 39°30' W 075°33'0 0.0
2017-May-24 09:00N 39°30' W 075°33'0 0.0
2017-May-24 08:30N 39°30' W 075°33'0 0.0
2017-May-24 08:00N 39°30' W 075°33'0 0.5
2017-May-24 07:29N 39°30' W 075°33'0 0.3
2017-May-24 06:59N 39°30' W 075°33'0 0.5
2017-May-24 06:29N 39°30' W 075°33'0 0.1
2017-May-24 05:59N 39°30' W 075°33'0 0.0
2017-May-24 05:29N 39°30' W 075°33'0 0.0
2017-May-24 04:59N 39°30' W 075°33'0 0.1
2017-May-24 04:30N 39°30' W 075°33'0 0.8
2017-May-24 04:01N 39°30' W 075°33'3 6.3
2017-May-24 03:30N 39°33' W 075°33'3 6.3
2017-May-24 03:00N 39°36' W 075°34'3 5.3
2017-May-24 02:30N 39°39' W 075°33'3 5.4
2017-May-24 02:01N 39°41' W 075°31'2 3.3
2017-May-24 01:30N 39°42' W 075°30'0 0.2
2017-May-24 01:00N 39°42' W 075°30'0 0.2
2017-May-24 00:30N 39°42' W 075°30'1 1.4
2017-May-24 00:00N 39°42' W 075°31'4 8.2
2017-May-23 23:30N 39°38' W 075°34'4 7.9
2017-May-23 23:00N 39°34' W 075°33'4 8.2
2017-May-23 22:31N 39°30' W 075°33'4 7.7
2017-May-23 22:00N 39°27' W 075°33'4 7.8
2017-May-23 21:30N 39°24' W 075°29'4 7.3
2017-May-23 21:01N 39°21' W 075°26'4 7.1
2017-May-23 20:30N 39°18' W 075°23'3 6.8
2017-May-23 20:00N 39°16' W 075°20'3 6.2
2017-May-23 19:29N 39°13' W 075°18'3 6.2
2017-May-23 19:00N 39°10' W 075°16'54 4.2
2017-May-23 06:09N 39°28' W 074°11'1 7.3
2017-May-23 05:57N 39°30' W 074°10'3 7.3
2017-May-23 05:30N 39°32' W 074°08'4 7.3
2017-May-23 05:00N 39°36' W 074°05'4 7.3
2017-May-23 04:30N 39°39' W 074°03'4 7.3
2017-May-23 04:00N 39°42' W 074°01'49 6.7
2017-May-22 20:40N 40°31' W 074°00'1 5.5
2017-May-22 20:30N 40°32' W 074°01'3 5.6
2017-May-22 20:01N 40°34' W 074°02'3 5.9
2017-May-22 19:31N 40°37' W 074°03'3 5.4
2017-May-22 19:01N 40°40' W 074°01'3 5.2
2017-May-22 18:30N 40°42' W 073°60'2 5.0
2017-May-22 18:00N 40°44' W 073°58'15 0.4
2017-May-21 07:17N 40°53' W 073°43'410.2
2017-May-21 06:52N 40°50' W 073°46'3 8.5
2017-May-21 06:30N 40°48' W 073°50'5 9.8
2017-May-21 06:00N 40°47' W 073°56'510.1
2017-May-21 05:31N 40°42' W 073°59'4 7.5
2017-May-21 05:01N 40°40' W 074°02'1 1.8
2017-May-21 04:31N 40°39' W 074°03'3 2.9
2017-May-21 03:38N 40°39' W 074°07'0 0.0
2017-May-21 03:13N 40°39' W 074°07'0 0.0
2017-May-21 02:52N 40°39' W 074°07'0 0.0
2017-May-21 02:15N 40°39' W 074°07'0 0.0
2017-May-21 02:00N 40°39' W 074°07'0 0.0
2017-May-21 01:27N 40°39' W 074°07'0 0.0
2017-May-21 00:56N 40°39' W 074°07'0 0.0
2017-May-21 00:28N 40°39' W 074°07'0 0.0
2017-May-20 23:55N 40°39' W 074°07'0 0.0
2017-May-20 23:13N 40°39' W 074°07'0 0.0
2017-May-20 22:54N 40°39' W 074°07'2 5.4
2017-May-20 22:31N 40°39' W 074°04'2 4.1
2017-May-20 21:59N 40°39' W 074°07'2 5.1
2017-May-20 21:30N 40°39' W 074°10'0 0.0
2017-May-20 20:59N 40°39' W 074°10'0 0.0
2017-May-20 20:30N 40°39' W 074°10'0 0.0
2017-May-20 20:00N 40°39' W 074°10'0 0.0
2017-May-20 19:30N 40°39' W 074°10'0 0.0
2017-May-20 19:00N 40°39' W 074°10'0 0.0
2017-May-20 18:29N 40°39' W 074°10'4 7.9
2017-May-20 18:01N 40°39' W 074°05'2 4.1
2017-May-20 17:31N 40°40' W 074°02'3 5.4
2017-May-20 17:01N 40°37' W 074°03'46 9.1
2017-May-20 11:59N 39°51' W 073°58'6 8.7
2017-May-20 11:16N 39°45' W 073°59'3 8.0
2017-May-20 10:54N 39°42' W 074°01'71 8.5
2017-May-20 02:32N 38°49' W 075°02'010.9
2017-May-20 02:30N 38°49' W 075°02'611.1
2017-May-20 02:00N 38°54' W 075°05'611.2
2017-May-20 01:30N 38°60' W 075°08'611.4
2017-May-20 01:01N 39°05' W 075°11'611.3
2017-May-20 00:30N 39°09' W 075°15'511.0
2017-May-20 00:01N 39°14' W 075°19'510.5
2017-May-19 23:30N 39°18' W 075°23'510.0
2017-May-19 23:00N 39°22' W 075°27'5 9.1
2017-May-19 22:31N 39°25' W 075°31'4 8.2
2017-May-19 22:01N 39°29' W 075°34'4 7.9
2017-May-19 21:31N 39°33' W 075°33'4 7.8
2017-May-19 21:01N 39°36' W 075°34'4 7.2
2017-May-19 20:31N 39°40' W 075°32'4 7.1
2017-May-19 20:01N 39°43' W 075°31'0 0.4
2017-May-19 19:30N 39°43' W 075°31'0 0.0
2017-May-19 19:01N 39°43' W 075°31'0 0.0
2017-May-19 18:30N 39°43' W 075°31'0 0.0
2017-May-19 18:01N 39°43' W 075°31'0 0.0
2017-May-19 17:30N 39°43' W 075°31'0 0.0
2017-May-19 17:00N 39°43' W 075°31'0 0.0
2017-May-19 16:28N 39°43' W 075°31'0 0.0
2017-May-19 16:00N 39°43' W 075°31'0 0.0
2017-May-19 15:30N 39°43' W 075°31'0 0.0
2017-May-19 14:54N 39°43' W 075°31'0 0.0
2017-May-19 14:00N 39°43' W 075°31'0 0.0
2017-May-19 13:30N 39°43' W 075°31'0 0.0
2017-May-19 12:58N 39°43' W 075°31'0 0.0
2017-May-19 12:30N 39°43' W 075°31'0 0.0
2017-May-19 11:58N 39°43' W 075°31'0 0.0
2017-May-19 11:27N 39°43' W 075°31'0 0.1
2017-May-19 11:00N 39°43' W 075°31'0 0.0
2017-May-19 10:30N 39°43' W 075°31'0 0.0
2017-May-19 10:01N 39°43' W 075°31'0 0.0
2017-May-19 09:30N 39°43' W 075°31'0 0.0
2017-May-19 09:00N 39°43' W 075°31'0 0.0
2017-May-19 08:30N 39°43' W 075°31'0 0.0
2017-May-19 08:01N 39°43' W 075°31'0 0.0
2017-May-19 07:31N 39°43' W 075°31'0 0.0
2017-May-19 07:01N 39°43' W 075°31'0 0.0
2017-May-19 06:30N 39°43' W 075°31'0 0.0
2017-May-19 06:01N 39°43' W 075°31'0 0.0
2017-May-19 05:30N 39°43' W 075°31'0 0.0
2017-May-19 05:01N 39°43' W 075°31'0 0.0
2017-May-19 04:31N 39°43' W 075°31'0 0.0
2017-May-19 04:01N 39°43' W 075°31'0 0.0
2017-May-19 03:30N 39°43' W 075°31'0 0.0
2017-May-19 03:01N 39°43' W 075°31'0 0.0
2017-May-19 02:31N 39°43' W 075°31'0 0.0
2017-May-19 02:01N 39°43' W 075°31'0 0.0
2017-May-19 01:30N 39°43' W 075°31'0 0.0
2017-May-19 01:01N 39°43' W 075°31'0 0.0
2017-May-19 00:31N 39°43' W 075°31'1 2.1
2017-May-19 00:00N 39°42' W 075°31'3 7.0
2017-May-18 23:30N 39°39' W 075°33'3 6.4
2017-May-18 23:01N 39°36' W 075°34'4 7.5
2017-May-18 22:31N 39°32' W 075°33'4 7.9
2017-May-18 22:01N 39°28' W 075°34'4 7.7
2017-May-18 21:31N 39°25' W 075°31'4 8.3
2017-May-18 21:00N 39°22' W 075°27'4 8.3
2017-May-18 20:31N 39°19' W 075°24'4 8.3
2017-May-18 20:01N 39°16' W 075°20'4 8.2
2017-May-18 19:30N 39°12' W 075°17'59 4.5
2017-May-18 06:31N 39°34' W 074°07'1 6.9
2017-May-18 06:24N 39°35' W 074°06'3 6.9
2017-May-18 05:59N 39°37' W 074°04'3 6.8
2017-May-18 05:30N 39°40' W 074°02'49 6.8
2017-May-17 22:23N 40°29' W 073°54'4 7.6
2017-May-17 21:53N 40°31' W 073°58'3 7.8
2017-May-17 21:30N 40°33' W 074°02'  

Dump ship's entire track history